sensor_id;sensor_type;location;lat;lon;timestamp;P1;durP1;ratioP1;P2;durP2;ratioP2
80249;SDS011;69561;37.974;23.708;2023-09-19T00:01:33;1.60;;;1.50;;
80249;SDS011;69561;37.974;23.708;2023-09-19T00:03:59;2.13;;;1.55;;
80249;SDS011;69561;37.974;23.708;2023-09-19T00:06:28;1.60;;;1.50;;
80249;SDS011;69561;37.974;23.708;2023-09-19T00:08:56;2.10;;;1.90;;
80249;SDS011;69561;37.974;23.708;2023-09-19T00:11:25;1.58;;;1.48;;
80249;SDS011;69561;37.974;23.708;2023-09-19T00:13:51;2.92;;;1.60;;
80249;SDS011;69561;37.974;23.708;2023-09-19T00:16:17;1.60;;;1.50;;
80249;SDS011;69561;37.974;23.708;2023-09-19T00:18:44;1.48;;;1.38;;
80249;SDS011;69561;37.974;23.708;2023-09-19T00:21:10;2.15;;;1.75;;
80249;SDS011;69561;37.974;23.708;2023-09-19T00:23:36;3.00;;;1.60;;
80249;SDS011;69561;37.974;23.708;2023-09-19T00:26:02;1.70;;;1.60;;
80249;SDS011;69561;37.974;23.708;2023-09-19T00:28:29;1.75;;;1.50;;
80249;SDS011;69561;37.974;23.708;2023-09-19T00:30:55;1.95;;;1.70;;
80249;SDS011;69561;37.974;23.708;2023-09-19T00:33:23;1.73;;;1.60;;
80249;SDS011;69561;37.974;23.708;2023-09-19T00:35:50;1.88;;;1.67;;
80249;SDS011;69561;37.974;23.708;2023-09-19T00:38:18;1.60;;;1.50;;
80249;SDS011;69561;37.974;23.708;2023-09-19T00:40:47;1.80;;;1.63;;
80249;SDS011;69561;37.974;23.708;2023-09-19T00:43:13;1.50;;;1.40;;
80249;SDS011;69561;37.974;23.708;2023-09-19T00:45:42;1.60;;;1.50;;
80249;SDS011;69561;37.974;23.708;2023-09-19T00:50:37;2.45;;;1.45;;
80249;SDS011;69561;37.974;23.708;2023-09-19T00:53:07;1.67;;;1.55;;
80249;SDS011;69561;37.974;23.708;2023-09-19T00:55:33;1.60;;;1.50;;
80249;SDS011;69561;37.974;23.708;2023-09-19T00:57:59;1.65;;;1.55;;
80249;SDS011;69561;37.974;23.708;2023-09-19T01:00:26;1.92;;;1.55;;
80249;SDS011;69561;37.974;23.708;2023-09-19T01:02:52;2.38;;;1.70;;
80249;SDS011;69561;37.974;23.708;2023-09-19T01:05:19;1.95;;;1.60;;
80249;SDS011;69561;37.974;23.708;2023-09-19T01:07:44;1.95;;;1.80;;
80249;SDS011;69561;37.974;23.708;2023-09-19T01:10:14;1.50;;;1.40;;
80249;SDS011;69561;37.974;23.708;2023-09-19T01:23:19;1.70;;;1.42;;
80249;SDS011;69561;37.974;23.708;2023-09-19T01:29:07;1.95;;;1.60;;
80249;SDS011;69561;37.974;23.708;2023-09-19T01:31:54;2.10;;;1.65;;
80249;SDS011;69561;37.974;23.708;2023-09-19T01:34:42;1.60;;;1.50;;
80249;SDS011;69561;37.974;23.708;2023-09-19T01:37:10;1.70;;;1.60;;
80249;SDS011;69561;37.974;23.708;2023-09-19T01:39:36;1.60;;;1.50;;
80249;SDS011;69561;37.974;23.708;2023-09-19T01:42:09;1.40;;;1.30;;
80249;SDS011;69561;37.974;23.708;2023-09-19T01:44:44;1.88;;;1.70;;
80249;SDS011;69561;37.974;23.708;2023-09-19T01:47:41;1.50;;;1.40;;
80249;SDS011;69561;37.974;23.708;2023-09-19T01:53:08;1.55;;;1.45;;
80249;SDS011;69561;37.974;23.708;2023-09-19T01:55:45;1.52;;;1.42;;
80249;SDS011;69561;37.974;23.708;2023-09-19T02:00:49;1.67;;;1.58;;
80249;SDS011;69561;37.974;23.708;2023-09-19T02:03:16;1.98;;;1.83;;
80249;SDS011;69561;37.974;23.708;2023-09-19T02:05:52;2.05;;;1.55;;
80249;SDS011;69561;37.974;23.708;2023-09-19T02:08:19;1.73;;;1.63;;
80249;SDS011;69561;37.974;23.708;2023-09-19T02:10:48;2.10;;;1.70;;
80249;SDS011;69561;37.974;23.708;2023-09-19T02:13:17;2.00;;;1.63;;
80249;SDS011;69561;37.974;23.708;2023-09-19T02:15:44;1.90;;;1.80;;
80249;SDS011;69561;37.974;23.708;2023-09-19T02:18:11;4.05;;;1.45;;
80249;SDS011;69561;37.974;23.708;2023-09-19T02:20:38;1.95;;;1.70;;
80249;SDS011;69561;37.974;23.708;2023-09-19T02:23:04;3.30;;;1.88;;
80249;SDS011;69561;37.974;23.708;2023-09-19T02:25:30;2.22;;;1.70;;
80249;SDS011;69561;37.974;23.708;2023-09-19T02:27:58;2.97;;;1.58;;
80249;SDS011;69561;37.974;23.708;2023-09-19T02:30:24;1.80;;;1.70;;
80249;SDS011;69561;37.974;23.708;2023-09-19T02:32:51;2.08;;;1.67;;
80249;SDS011;69561;37.974;23.708;2023-09-19T02:35:17;1.70;;;1.60;;
80249;SDS011;69561;37.974;23.708;2023-09-19T02:37:45;1.70;;;1.50;;
80249;SDS011;69561;37.974;23.708;2023-09-19T02:40:11;1.70;;;1.60;;
80249;SDS011;69561;37.974;23.708;2023-09-19T02:42:53;3.65;;;1.80;;
80249;SDS011;69561;37.974;23.708;2023-09-19T02:45:19;1.55;;;1.42;;
80249;SDS011;69561;37.974;23.708;2023-09-19T02:47:46;2.75;;;2.08;;
80249;SDS011;69561;37.974;23.708;2023-09-19T02:50:12;2.50;;;1.70;;
80249;SDS011;69561;37.974;23.708;2023-09-19T02:52:41;2.00;;;1.65;;
80249;SDS011;69561;37.974;23.708;2023-09-19T02:55:13;2.13;;;1.63;;
80249;SDS011;69561;37.974;23.708;2023-09-19T02:57:53;2.35;;;1.70;;
80249;SDS011;69561;37.974;23.708;2023-09-19T03:00:20;2.58;;;1.73;;
80249;SDS011;69561;37.974;23.708;2023-09-19T03:02:47;1.90;;;1.40;;
80249;SDS011;69561;37.974;23.708;2023-09-19T03:05:14;1.90;;;1.67;;
80249;SDS011;69561;37.974;23.708;2023-09-19T03:07:40;2.45;;;1.52;;
80249;SDS011;69561;37.974;23.708;2023-09-19T03:10:08;1.67;;;1.58;;
80249;SDS011;69561;37.974;23.708;2023-09-19T03:12:34;1.52;;;1.30;;
80249;SDS011;69561;37.974;23.708;2023-09-19T03:15:00;2.20;;;1.60;;
80249;SDS011;69561;37.974;23.708;2023-09-19T03:17:26;2.33;;;1.67;;
80249;SDS011;69561;37.974;23.708;2023-09-19T03:19:52;1.95;;;1.75;;
80249;SDS011;69561;37.974;23.708;2023-09-19T03:22:19;1.65;;;1.55;;
80249;SDS011;69561;37.974;23.708;2023-09-19T03:24:45;2.17;;;1.60;;
80249;SDS011;69561;37.974;23.708;2023-09-19T03:27:11;2.60;;;1.63;;
80249;SDS011;69561;37.974;23.708;2023-09-19T03:29:41;1.75;;;1.40;;
80249;SDS011;69561;37.974;23.708;2023-09-19T03:32:07;3.90;;;1.58;;
80249;SDS011;69561;37.974;23.708;2023-09-19T03:34:37;2.20;;;1.85;;
80249;SDS011;69561;37.974;23.708;2023-09-19T03:37:05;2.25;;;1.80;;
80249;SDS011;69561;37.974;23.708;2023-09-19T03:39:32;2.45;;;2.05;;
80249;SDS011;69561;37.974;23.708;2023-09-19T03:41:58;2.03;;;1.83;;
80249;SDS011;69561;37.974;23.708;2023-09-19T03:44:23;3.00;;;1.67;;
80249;SDS011;69561;37.974;23.708;2023-09-19T03:46:49;1.85;;;1.60;;
80249;SDS011;69561;37.974;23.708;2023-09-19T03:49:15;2.03;;;1.67;;
80249;SDS011;69561;37.974;23.708;2023-09-19T03:51:40;2.58;;;1.83;;
80249;SDS011;69561;37.974;23.708;2023-09-19T03:54:07;3.15;;;1.77;;
80249;SDS011;69561;37.974;23.708;2023-09-19T03:56:32;1.75;;;1.55;;
80249;SDS011;69561;37.974;23.708;2023-09-19T03:58:58;2.17;;;1.58;;
80249;SDS011;69561;37.974;23.708;2023-09-19T04:01:24;2.67;;;1.77;;
80249;SDS011;69561;37.974;23.708;2023-09-19T04:03:52;1.92;;;1.60;;
80249;SDS011;69561;37.974;23.708;2023-09-19T04:06:18;3.40;;;1.70;;
80249;SDS011;69561;37.974;23.708;2023-09-19T04:08:44;2.60;;;1.63;;
80249;SDS011;69561;37.974;23.708;2023-09-19T04:11:11;1.70;;;1.60;;
80249;SDS011;69561;37.974;23.708;2023-09-19T04:13:37;3.00;;;1.60;;
80249;SDS011;69561;37.974;23.708;2023-09-19T04:16:03;2.83;;;1.88;;
80249;SDS011;69561;37.974;23.708;2023-09-19T04:18:29;4.25;;;1.80;;
80249;SDS011;69561;37.974;23.708;2023-09-19T04:20:58;2.88;;;1.67;;
80249;SDS011;69561;37.974;23.708;2023-09-19T04:23:26;1.73;;;1.60;;
80249;SDS011;69561;37.974;23.708;2023-09-19T04:25:53;3.55;;;1.88;;
80249;SDS011;69561;37.974;23.708;2023-09-19T04:28:19;2.20;;;1.98;;
80249;SDS011;69561;37.974;23.708;2023-09-19T04:30:44;2.05;;;1.70;;
80249;SDS011;69561;37.974;23.708;2023-09-19T04:33:10;3.25;;;1.52;;
80249;SDS011;69561;37.974;23.708;2023-09-19T04:35:39;2.63;;;2.00;;
80249;SDS011;69561;37.974;23.708;2023-09-19T04:38:07;2.13;;;1.70;;
80249;SDS011;69561;37.974;23.708;2023-09-19T04:40:34;2.67;;;2.05;;
80249;SDS011;69561;37.974;23.708;2023-09-19T04:43:00;2.30;;;1.80;;
80249;SDS011;69561;37.974;23.708;2023-09-19T04:45:26;2.05;;;1.70;;
80249;SDS011;69561;37.974;23.708;2023-09-19T04:47:53;2.35;;;1.80;;
80249;SDS011;69561;37.974;23.708;2023-09-19T04:50:19;4.03;;;1.50;;
80249;SDS011;69561;37.974;23.708;2023-09-19T04:52:50;1.58;;;1.48;;
80249;SDS011;69561;37.974;23.708;2023-09-19T04:55:16;1.60;;;1.50;;
80249;SDS011;69561;37.974;23.708;2023-09-19T04:57:44;1.60;;;1.30;;
80249;SDS011;69561;37.974;23.708;2023-09-19T05:00:17;2.42;;;1.33;;
80249;SDS011;69561;37.974;23.708;2023-09-19T05:02:44;1.30;;;1.20;;
80249;SDS011;69561;37.974;23.708;2023-09-19T05:05:10;1.73;;;1.40;;
80249;SDS011;69561;37.974;23.708;2023-09-19T05:07:37;2.17;;;1.20;;
80249;SDS011;69561;37.974;23.708;2023-09-19T05:10:04;2.60;;;1.40;;
80249;SDS011;69561;37.974;23.708;2023-09-19T05:12:32;1.33;;;1.20;;
80249;SDS011;69561;37.974;23.708;2023-09-19T05:15:02;1.45;;;1.13;;
80249;SDS011;69561;37.974;23.708;2023-09-19T05:17:28;1.40;;;1.30;;
80249;SDS011;69561;37.974;23.708;2023-09-19T05:19:54;1.70;;;1.23;;
80249;SDS011;69561;37.974;23.708;2023-09-19T05:22:20;1.30;;;1.17;;
80249;SDS011;69561;37.974;23.708;2023-09-19T05:24:46;1.60;;;1.20;;
80249;SDS011;69561;37.974;23.708;2023-09-19T05:27:13;1.05;;;0.95;;
80249;SDS011;69561;37.974;23.708;2023-09-19T05:29:41;1.48;;;1.08;;
80249;SDS011;69561;37.974;23.708;2023-09-19T05:32:08;1.60;;;1.05;;
80249;SDS011;69561;37.974;23.708;2023-09-19T05:34:35;1.10;;;1.00;;
80249;SDS011;69561;37.974;23.708;2023-09-19T05:37:00;0.98;;;0.90;;
80249;SDS011;69561;37.974;23.708;2023-09-19T05:39:26;1.05;;;0.95;;
80249;SDS011;69561;37.974;23.708;2023-09-19T05:41:52;0.80;;;0.80;;
80249;SDS011;69561;37.974;23.708;2023-09-19T05:44:18;0.80;;;0.80;;
80249;SDS011;69561;37.974;23.708;2023-09-19T05:46:44;1.00;;;0.80;;
80249;SDS011;69561;37.974;23.708;2023-09-19T05:49:13;1.30;;;1.00;;
80249;SDS011;69561;37.974;23.708;2023-09-19T05:51:39;0.85;;;0.80;;
80249;SDS011;69561;37.974;23.708;2023-09-19T05:54:05;0.93;;;0.90;;
80249;SDS011;69561;37.974;23.708;2023-09-19T05:56:30;1.08;;;0.90;;
80249;SDS011;69561;37.974;23.708;2023-09-19T05:58:56;0.80;;;0.80;;
80249;SDS011;69561;37.974;23.708;2023-09-19T06:01:22;0.88;;;0.88;;
80249;SDS011;69561;37.974;23.708;2023-09-19T06:03:48;1.00;;;0.90;;
80249;SDS011;69561;37.974;23.708;2023-09-19T06:06:14;0.77;;;0.75;;
80249;SDS011;69561;37.974;23.708;2023-09-19T06:08:39;1.05;;;0.95;;
80249;SDS011;69561;37.974;23.708;2023-09-19T06:11:05;0.90;;;0.90;;
80249;SDS011;69561;37.974;23.708;2023-09-19T06:13:32;1.08;;;0.98;;
80249;SDS011;69561;37.974;23.708;2023-09-19T06:15:58;1.10;;;1.00;;
80249;SDS011;69561;37.974;23.708;2023-09-19T06:18:29;0.95;;;0.90;;
80249;SDS011;69561;37.974;23.708;2023-09-19T06:20:58;0.98;;;0.93;;
80249;SDS011;69561;37.974;23.708;2023-09-19T06:23:25;0.73;;;0.73;;
80249;SDS011;69561;37.974;23.708;2023-09-19T06:25:53;1.85;;;0.85;;
80249;SDS011;69561;37.974;23.708;2023-09-19T06:28:19;1.05;;;0.95;;
80249;SDS011;69561;37.974;23.708;2023-09-19T06:30:49;1.08;;;1.00;;
80249;SDS011;69561;37.974;23.708;2023-09-19T06:33:15;0.75;;;0.75;;
80249;SDS011;69561;37.974;23.708;2023-09-19T06:35:42;0.90;;;0.90;;
80249;SDS011;69561;37.974;23.708;2023-09-19T06:38:09;1.52;;;0.80;;
80249;SDS011;69561;37.974;23.708;2023-09-19T06:40:36;1.02;;;0.90;;
80249;SDS011;69561;37.974;23.708;2023-09-19T06:43:02;1.23;;;0.90;;
80249;SDS011;69561;37.974;23.708;2023-09-19T06:45:30;1.17;;;0.90;;
80249;SDS011;69561;37.974;23.708;2023-09-19T06:47:56;0.82;;;0.82;;
80249;SDS011;69561;37.974;23.708;2023-09-19T06:50:25;1.13;;;1.02;;
80249;SDS011;69561;37.974;23.708;2023-09-19T06:52:51;0.90;;;0.90;;
80249;SDS011;69561;37.974;23.708;2023-09-19T06:55:19;1.10;;;0.95;;
80249;SDS011;69561;37.974;23.708;2023-09-19T06:57:48;1.70;;;1.00;;
80249;SDS011;69561;37.974;23.708;2023-09-19T07:00:15;1.10;;;1.00;;
80249;SDS011;69561;37.974;23.708;2023-09-19T07:02:43;1.10;;;0.95;;
80249;SDS011;69561;37.974;23.708;2023-09-19T07:05:09;1.08;;;0.82;;
80249;SDS011;69561;37.974;23.708;2023-09-19T07:07:35;1.17;;;1.08;;
80249;SDS011;69561;37.974;23.708;2023-09-19T07:10:02;1.00;;;0.98;;
80249;SDS011;69561;37.974;23.708;2023-09-19T07:12:30;1.58;;;1.00;;
80249;SDS011;69561;37.974;23.708;2023-09-19T07:14:58;1.10;;;1.00;;
80249;SDS011;69561;37.974;23.708;2023-09-19T07:17:23;1.30;;;1.00;;
80249;SDS011;69561;37.974;23.708;2023-09-19T07:19:49;1.05;;;0.95;;
80249;SDS011;69561;37.974;23.708;2023-09-19T07:22:15;1.05;;;1.05;;
80249;SDS011;69561;37.974;23.708;2023-09-19T07:24:41;2.15;;;0.90;;
80249;SDS011;69561;37.974;23.708;2023-09-19T07:27:07;1.20;;;1.10;;
80249;SDS011;69561;37.974;23.708;2023-09-19T07:29:34;2.55;;;1.00;;
80249;SDS011;69561;37.974;23.708;2023-09-19T07:31:59;1.70;;;1.10;;
80249;SDS011;69561;37.974;23.708;2023-09-19T07:34:25;1.20;;;1.10;;
80249;SDS011;69561;37.974;23.708;2023-09-19T07:36:51;1.45;;;1.13;;
80249;SDS011;69561;37.974;23.708;2023-09-19T07:39:17;1.50;;;1.20;;
80249;SDS011;69561;37.974;23.708;2023-09-19T07:41:42;1.23;;;1.13;;
80249;SDS011;69561;37.974;23.708;2023-09-19T07:44:08;1.48;;;1.38;;
80249;SDS011;69561;37.974;23.708;2023-09-19T07:46:35;1.48;;;1.38;;
80249;SDS011;69561;37.974;23.708;2023-09-19T07:49:01;1.45;;;1.35;;
80249;SDS011;69561;37.974;23.708;2023-09-19T07:51:27;1.45;;;1.23;;
80249;SDS011;69561;37.974;23.708;2023-09-19T07:53:53;1.45;;;1.35;;
80249;SDS011;69561;37.974;23.708;2023-09-19T07:56:20;1.40;;;1.30;;
80249;SDS011;69561;37.974;23.708;2023-09-19T07:58:46;1.70;;;1.60;;
80249;SDS011;69561;37.974;23.708;2023-09-19T08:01:11;1.55;;;1.45;;
80249;SDS011;69561;37.974;23.708;2023-09-19T08:03:39;1.17;;;1.10;;
80249;SDS011;69561;37.974;23.708;2023-09-19T08:06:09;1.60;;;1.50;;
80249;SDS011;69561;37.974;23.708;2023-09-19T08:08:36;1.92;;;1.58;;
80249;SDS011;69561;37.974;23.708;2023-09-19T08:11:03;1.83;;;1.50;;
80249;SDS011;69561;37.974;23.708;2023-09-19T08:13:41;1.77;;;1.60;;
80249;SDS011;69561;37.974;23.708;2023-09-19T08:16:10;1.90;;;1.70;;
80249;SDS011;69561;37.974;23.708;2023-09-19T08:18:36;2.33;;;1.70;;
80249;SDS011;69561;37.974;23.708;2023-09-19T08:21:05;1.70;;;1.60;;
80249;SDS011;69561;37.974;23.708;2023-09-19T08:23:36;1.88;;;1.77;;
80249;SDS011;69561;37.974;23.708;2023-09-19T08:26:03;2.10;;;1.85;;
80249;SDS011;69561;37.974;23.708;2023-09-19T08:28:33;1.85;;;1.75;;
80249;SDS011;69561;37.974;23.708;2023-09-19T08:31:03;2.38;;;2.17;;
80249;SDS011;69561;37.974;23.708;2023-09-19T08:33:33;3.13;;;2.83;;
80249;SDS011;69561;37.974;23.708;2023-09-19T08:36:00;3.30;;;3.00;;
80249;SDS011;69561;37.974;23.708;2023-09-19T08:38:30;3.58;;;3.28;;
80249;SDS011;69561;37.974;23.708;2023-09-19T08:40:58;4.78;;;3.97;;
80249;SDS011;69561;37.974;23.708;2023-09-19T08:43:25;5.47;;;4.20;;
80249;SDS011;69561;37.974;23.708;2023-09-19T08:46:14;5.63;;;4.38;;
80249;SDS011;69561;37.974;23.708;2023-09-19T08:48:45;4.88;;;3.78;;
80249;SDS011;69561;37.974;23.708;2023-09-19T08:51:26;6.05;;;3.38;;
80249;SDS011;69561;37.974;23.708;2023-09-19T08:54:00;3.58;;;3.28;;
80249;SDS011;69561;37.974;23.708;2023-09-19T08:56:31;3.60;;;3.08;;
80249;SDS011;69561;37.974;23.708;2023-09-19T08:59:05;3.88;;;3.08;;
80249;SDS011;69561;37.974;23.708;2023-09-19T09:01:36;4.05;;;2.80;;
80249;SDS011;69561;37.974;23.708;2023-09-19T09:04:06;4.63;;;3.00;;
80249;SDS011;69561;37.974;23.708;2023-09-19T09:06:38;2.92;;;2.60;;
80249;SDS011;69561;37.974;23.708;2023-09-19T09:09:05;2.85;;;2.65;;
80249;SDS011;69561;37.974;23.708;2023-09-19T09:11:34;2.88;;;2.40;;
80249;SDS011;69561;37.974;23.708;2023-09-19T09:14:02;2.60;;;2.17;;
80249;SDS011;69561;37.974;23.708;2023-09-19T09:16:28;2.42;;;2.20;;
80249;SDS011;69561;37.974;23.708;2023-09-19T09:18:55;2.53;;;2.20;;
80249;SDS011;69561;37.974;23.708;2023-09-19T09:21:21;2.53;;;1.95;;
80249;SDS011;69561;37.974;23.708;2023-09-19T09:23:50;2.45;;;1.92;;
80249;SDS011;69561;37.974;23.708;2023-09-19T09:26:17;2.75;;;1.80;;
80249;SDS011;69561;37.974;23.708;2023-09-19T09:29:10;2.40;;;2.03;;
80249;SDS011;69561;37.974;23.708;2023-09-19T09:31:36;2.72;;;1.90;;
80249;SDS011;69561;37.974;23.708;2023-09-19T09:34:03;2.20;;;1.73;;
80249;SDS011;69561;37.974;23.708;2023-09-19T09:36:35;1.90;;;1.63;;
80249;SDS011;69561;37.974;23.708;2023-09-19T09:39:08;3.20;;;1.80;;
80249;SDS011;69561;37.974;23.708;2023-09-19T09:41:44;2.10;;;1.75;;
80249;SDS011;69561;37.974;23.708;2023-09-19T09:44:14;3.05;;;1.90;;
80249;SDS011;69561;37.974;23.708;2023-09-19T09:46:44;1.50;;;1.30;;
80249;SDS011;69561;37.974;23.708;2023-09-19T09:49:18;1.88;;;1.60;;
80249;SDS011;69561;37.974;23.708;2023-09-19T09:52:27;1.70;;;1.60;;
80249;SDS011;69561;37.974;23.708;2023-09-19T09:55:04;1.73;;;1.63;;
80249;SDS011;69561;37.974;23.708;2023-09-19T09:57:32;1.60;;;1.50;;
80249;SDS011;69561;37.974;23.708;2023-09-19T09:59:59;1.80;;;1.70;;
80249;SDS011;69561;37.974;23.708;2023-09-19T10:02:37;2.22;;;1.83;;
80249;SDS011;69561;37.974;23.708;2023-09-19T10:07:52;4.03;;;2.10;;
80249;SDS011;69561;37.974;23.708;2023-09-19T10:10:32;2.10;;;1.90;;
80249;SDS011;69561;37.974;23.708;2023-09-19T10:13:05;1.90;;;1.80;;
80249;SDS011;69561;37.974;23.708;2023-09-19T10:15:33;2.38;;;2.17;;
80249;SDS011;69561;37.974;23.708;2023-09-19T10:18:04;3.65;;;2.47;;
80249;SDS011;69561;37.974;23.708;2023-09-19T10:20:30;2.42;;;2.22;;
80249;SDS011;69561;37.974;23.708;2023-09-19T10:23:09;2.10;;;2.00;;
80249;SDS011;69561;37.974;23.708;2023-09-19T10:25:42;2.15;;;2.03;;
80249;SDS011;69561;37.974;23.708;2023-09-19T10:28:13;2.30;;;1.85;;
80249;SDS011;69561;37.974;23.708;2023-09-19T10:30:42;2.55;;;2.30;;
80249;SDS011;69561;37.974;23.708;2023-09-19T10:33:19;2.28;;;2.10;;
80249;SDS011;69561;37.974;23.708;2023-09-19T10:35:48;4.53;;;2.50;;
80249;SDS011;69561;37.974;23.708;2023-09-19T10:38:18;2.75;;;2.40;;
80249;SDS011;69561;37.974;23.708;2023-09-19T10:40:48;3.25;;;2.70;;
80249;SDS011;69561;37.974;23.708;2023-09-19T10:43:17;3.75;;;2.88;;
80249;SDS011;69561;37.974;23.708;2023-09-19T10:45:44;2.60;;;2.40;;
80249;SDS011;69561;37.974;23.708;2023-09-19T10:48:11;3.08;;;2.40;;
80249;SDS011;69561;37.974;23.708;2023-09-19T10:56:37;3.10;;;2.90;;
80249;SDS011;69561;37.974;23.708;2023-09-19T11:01:47;3.63;;;3.30;;
80249;SDS011;69561;37.974;23.708;2023-09-19T11:07:00;3.53;;;3.22;;
80249;SDS011;69561;37.974;23.708;2023-09-19T11:09:48;3.47;;;3.20;;
80249;SDS011;69561;37.974;23.708;2023-09-19T11:15:08;3.75;;;3.33;;
80249;SDS011;69561;37.974;23.708;2023-09-19T11:17:36;4.18;;;3.13;;
80249;SDS011;69561;37.974;23.708;2023-09-19T11:30:31;3.13;;;2.60;;
80249;SDS011;69561;37.974;23.708;2023-09-19T11:36:00;2.70;;;2.50;;
80249;SDS011;69561;37.974;23.708;2023-09-19T11:43:45;2.88;;;2.30;;
80249;SDS011;69561;37.974;23.708;2023-09-19T11:46:12;2.88;;;2.45;;
80249;SDS011;69561;37.974;23.708;2023-09-19T11:48:41;3.70;;;2.58;;
80249;SDS011;69561;37.974;23.708;2023-09-19T11:51:12;2.30;;;2.10;;
80249;SDS011;69561;37.974;23.708;2023-09-19T11:53:52;2.53;;;2.20;;
80249;SDS011;69561;37.974;23.708;2023-09-19T11:56:24;2.40;;;2.15;;
80249;SDS011;69561;37.974;23.708;2023-09-19T11:58:54;2.38;;;2.17;;
80249;SDS011;69561;37.974;23.708;2023-09-19T12:01:27;2.03;;;1.90;;
80249;SDS011;69561;37.974;23.708;2023-09-19T12:03:59;2.92;;;2.17;;
80249;SDS011;69561;37.974;23.708;2023-09-19T12:06:27;2.40;;;1.90;;
80249;SDS011;69561;37.974;23.708;2023-09-19T12:08:54;1.98;;;1.80;;
80249;SDS011;69561;37.974;23.708;2023-09-19T12:11:22;2.10;;;1.60;;
80249;SDS011;69561;37.974;23.708;2023-09-19T12:13:50;1.60;;;1.50;;
80249;SDS011;69561;37.974;23.708;2023-09-19T12:16:21;2.15;;;1.95;;
80249;SDS011;69561;37.974;23.708;2023-09-19T12:18:47;1.60;;;1.50;;
80249;SDS011;69561;37.974;23.708;2023-09-19T12:21:26;1.70;;;1.60;;
80249;SDS011;69561;37.974;23.708;2023-09-19T12:23:59;1.75;;;1.60;;
80249;SDS011;69561;37.974;23.708;2023-09-19T12:26:41;1.80;;;1.70;;
80249;SDS011;69561;37.974;23.708;2023-09-19T12:29:15;3.00;;;1.70;;
80249;SDS011;69561;37.974;23.708;2023-09-19T12:31:55;2.15;;;1.58;;
80249;SDS011;69561;37.974;23.708;2023-09-19T12:34:32;1.60;;;1.50;;
80249;SDS011;69561;37.974;23.708;2023-09-19T12:39:41;1.50;;;1.40;;
80249;SDS011;69561;37.974;23.708;2023-09-19T12:42:13;1.67;;;1.40;;
80249;SDS011;69561;37.974;23.708;2023-09-19T12:44:41;3.25;;;1.63;;
80249;SDS011;69561;37.974;23.708;2023-09-19T12:47:18;1.70;;;1.60;;
80249;SDS011;69561;37.974;23.708;2023-09-19T12:52:47;3.55;;;2.33;;
80249;SDS011;69561;37.974;23.708;2023-09-19T12:55:21;2.78;;;2.50;;
80249;SDS011;69561;37.974;23.708;2023-09-19T13:00:39;4.55;;;3.72;;
80249;SDS011;69561;37.974;23.708;2023-09-19T13:03:50;5.68;;;3.25;;
80249;SDS011;69561;37.974;23.708;2023-09-19T13:06:03;3.63;;;3.33;;
80249;SDS011;69561;37.974;23.708;2023-09-19T13:08:35;4.70;;;4.20;;
80249;SDS011;69561;37.974;23.708;2023-09-19T13:13:39;7.22;;;4.90;;
80249;SDS011;69561;37.974;23.708;2023-09-19T13:16:14;7.53;;;5.55;;
80249;SDS011;69561;37.974;23.708;2023-09-19T13:18:48;5.23;;;4.67;;
80249;SDS011;69561;37.974;23.708;2023-09-19T13:21:16;5.45;;;4.90;;
80249;SDS011;69561;37.974;23.708;2023-09-19T13:23:52;5.30;;;4.80;;
80249;SDS011;69561;37.974;23.708;2023-09-19T13:26:24;5.28;;;4.75;;
80249;SDS011;69561;37.974;23.708;2023-09-19T13:28:50;5.50;;;5.00;;
80249;SDS011;69561;37.974;23.708;2023-09-19T13:31:16;5.35;;;4.82;;
80249;SDS011;69561;37.974;23.708;2023-09-19T13:33:44;4.63;;;4.22;;
80249;SDS011;69561;37.974;23.708;2023-09-19T13:36:10;4.60;;;4.20;;
80249;SDS011;69561;37.974;23.708;2023-09-19T13:38:38;4.32;;;3.92;;
80249;SDS011;69561;37.974;23.708;2023-09-19T13:41:11;4.05;;;3.60;;
80249;SDS011;69561;37.974;23.708;2023-09-19T13:43:38;4.93;;;3.50;;
80249;SDS011;69561;37.974;23.708;2023-09-19T13:46:04;3.20;;;2.90;;
80249;SDS011;69561;37.974;23.708;2023-09-19T13:48:33;3.17;;;2.88;;
80249;SDS011;69561;37.974;23.708;2023-09-19T13:51:01;3.10;;;2.80;;
80249;SDS011;69561;37.974;23.708;2023-09-19T13:53:29;2.85;;;2.53;;
80249;SDS011;69561;37.974;23.708;2023-09-19T13:55:54;2.50;;;2.30;;
80249;SDS011;69561;37.974;23.708;2023-09-19T13:58:20;2.30;;;2.10;;
80249;SDS011;69561;37.974;23.708;2023-09-19T14:00:47;2.88;;;2.55;;
80249;SDS011;69561;37.974;23.708;2023-09-19T14:03:14;2.35;;;2.15;;
80249;SDS011;69561;37.974;23.708;2023-09-19T14:05:39;2.47;;;2.28;;
80249;SDS011;69561;37.974;23.708;2023-09-19T14:08:07;2.30;;;2.10;;
80249;SDS011;69561;37.974;23.708;2023-09-19T14:10:33;2.20;;;2.00;;
80249;SDS011;69561;37.974;23.708;2023-09-19T14:13:00;2.13;;;2.00;;
80249;SDS011;69561;37.974;23.708;2023-09-19T14:15:26;2.25;;;2.05;;
80249;SDS011;69561;37.974;23.708;2023-09-19T14:17:56;1.98;;;1.88;;
80249;SDS011;69561;37.974;23.708;2023-09-19T14:20:24;1.95;;;1.80;;
80249;SDS011;69561;37.974;23.708;2023-09-19T14:22:51;1.88;;;1.77;;
80249;SDS011;69561;37.974;23.708;2023-09-19T14:25:18;1.70;;;1.60;;
80249;SDS011;69561;37.974;23.708;2023-09-19T14:27:44;1.77;;;1.67;;
80249;SDS011;69561;37.974;23.708;2023-09-19T14:30:10;1.58;;;1.48;;
80249;SDS011;69561;37.974;23.708;2023-09-19T14:32:36;1.65;;;1.55;;
80249;SDS011;69561;37.974;23.708;2023-09-19T14:35:03;1.70;;;1.60;;
80249;SDS011;69561;37.974;23.708;2023-09-19T14:37:28;1.77;;;1.67;;
80249;SDS011;69561;37.974;23.708;2023-09-19T14:39:54;1.90;;;1.70;;
80249;SDS011;69561;37.974;23.708;2023-09-19T14:42:21;1.70;;;1.60;;
80249;SDS011;69561;37.974;23.708;2023-09-19T14:44:46;1.42;;;1.33;;
80249;SDS011;69561;37.974;23.708;2023-09-19T14:47:13;1.50;;;1.40;;
80249;SDS011;69561;37.974;23.708;2023-09-19T14:49:39;1.50;;;1.40;;
80249;SDS011;69561;37.974;23.708;2023-09-19T14:52:09;1.48;;;1.38;;
80249;SDS011;69561;37.974;23.708;2023-09-19T14:54:35;1.70;;;1.60;;
80249;SDS011;69561;37.974;23.708;2023-09-19T14:57:03;2.05;;;1.20;;
80249;SDS011;69561;37.974;23.708;2023-09-19T14:59:32;1.10;;;1.10;;
80249;SDS011;69561;37.974;23.708;2023-09-19T15:01:59;1.40;;;1.30;;
80249;SDS011;69561;37.974;23.708;2023-09-19T15:04:25;1.30;;;1.20;;
80249;SDS011;69561;37.974;23.708;2023-09-19T15:06:52;1.10;;;1.10;;
80249;SDS011;69561;37.974;23.708;2023-09-19T15:09:20;1.60;;;1.50;;
80249;SDS011;69561;37.974;23.708;2023-09-19T15:11:52;1.25;;;1.10;;
80249;SDS011;69561;37.974;23.708;2023-09-19T15:14:19;1.20;;;1.10;;
80249;SDS011;69561;37.974;23.708;2023-09-19T15:16:44;1.35;;;1.25;;
80249;SDS011;69561;37.974;23.708;2023-09-19T15:19:10;1.30;;;1.20;;
80249;SDS011;69561;37.974;23.708;2023-09-19T15:21:36;1.40;;;1.30;;
80249;SDS011;69561;37.974;23.708;2023-09-19T15:24:05;1.30;;;1.20;;
80249;SDS011;69561;37.974;23.708;2023-09-19T15:26:34;1.30;;;1.20;;
80249;SDS011;69561;37.974;23.708;2023-09-19T15:29:04;1.50;;;1.40;;
80249;SDS011;69561;37.974;23.708;2023-09-19T15:31:34;4.40;;;1.02;;
80249;SDS011;69561;37.974;23.708;2023-09-19T15:34:04;1.23;;;1.13;;
80249;SDS011;69561;37.974;23.708;2023-09-19T15:36:32;1.52;;;1.40;;
80249;SDS011;69561;37.974;23.708;2023-09-19T15:41:25;1.20;;;1.10;;
80249;SDS011;69561;37.974;23.708;2023-09-19T15:43:52;1.30;;;1.20;;
80249;SDS011;69561;37.974;23.708;2023-09-19T15:46:19;1.60;;;1.30;;
80249;SDS011;69561;37.974;23.708;2023-09-19T15:48:45;1.40;;;1.30;;
80249;SDS011;69561;37.974;23.708;2023-09-19T15:51:11;1.30;;;1.20;;
80249;SDS011;69561;37.974;23.708;2023-09-19T15:53:44;1.48;;;1.38;;